Главная страница
METAR-TAF:

METAR-TAF

Аэропорты :

Wrigley, Северо-Западные Территории, Канада

широта: 63-13N, долгота: 123-26W, высота над уровнем моря: 150 м

Текущие метеонаблюдения

Эта сводка был подготовлена 5 часа и 15 минут назад, в 22:00 UTC
Ветер 3 Узел от западно-северо-западный, изменяющийся между западный и северо-восточный
Температура 18°C
Влажность 49%
Давление 1005 hPa
Видимость: 24.1 км
Рассеянная облачность на высоте 8700 фута
Рассеянная облачность на высоте 17000 фута
Сплошная облачность на высоте 25000 фута

METAR: CYWY 172200Z 30003KT 260V040 15SM BKN087 BKN170 OVC250 18/07 A2968 RMK ACC6AC1CI1 VIRGA 18.1/8.4/0/0 LAST OBS/NXT 201400Z SLP058 DENSITY ALT 1200FT

Время: 21:15 (03:15 UTC)


TAF: отсутствует

Метеонаблюдения и прогнозы для более 4000 аэропортов (сводки METAR и TAF).

Имеющиеся станции представлены на карте желтыми и красными точками.

Чтобы увидеть название станции, наведите на нее мышь.

Затем щелкните, чтобы увидеть метеонаблюдения и метеопрогнозы.

Управление картой: чтобы увеличить масштаб, щелкните зеленые кнопки с черным крестиком; чтобы уменьшить масштаб, щелкните зеленую кнопку с тире; для просмотра соседних карт щелкайте зеленые стрелки.


METAR-TAF: